Walbrook, Maryland
Current Conditions -  °F | °C
As of 9:54 PM on Thursday 27 Nov 2014 (Local Time) from KBWI Reporting Station
Broken Clouds Broken Clouds  
Wind Chill: 30°   Ceiling: 7000
Heat Index: 36°   Visibility: 10mi
Dew Point: 29°   Wind: 7mph
Humidity: 76%   Direction: 260°W
Pressure: 30.15"   Gusts: NA
Location:  39.311°N, 76.6719°W
Report Text: KBWI 280254Z 26006KT 10SM BKN070 02/M02 A3015 RMK AO2 SLP209 T00221017 51012
Loading
Personal Weather Stations






























Interactive Weather Map New forecast layout! Learn more

10-Day Weather Forecast

Advertisements
Track Severe Weather on mobile